Aviation Digital Data Service (ADDS)

Output produced by METARs form (2117 UTC 01 April 2015)
found at http://aviationweather.gov/adds/metars/
 
KIAH 012009Z 0120/0224 16010KT P6SM VCSH SCT030 BKN070 OVC170 
     TEMPO 0121/0123 TSRA BKN030CB 
     FM020200 16008KT P6SM SCT025 BKN140 
     FM020900 16006KT P6SM SCT009 BKN015 
     FM021600 18011KT P6SM BKN020 
     FM021900 18012G22KT P6SM SCT040 SCT250